Jackson Heights, New York
Current Conditions -  °F | °C
As of 4:51 AM on Sunday 23 Nov 2014 (Local Time) from KLGA Reporting Station
Overcast Overcast  
Wind Chill: 39°   Ceiling: 11000
Heat Index: 44°   Visibility: 10mi
Dew Point: 22°   Wind: 9mph
Humidity: 42%   Direction: 240°WSW
Pressure: 30.18"   Gusts: 20mph
Location:  40.76°N, 73.89°W
Report Text: KLGA 230951Z 24008G17KT 10SM OVC110 07/M06 A3018 RMK AO2 SLP221 T00671056
Loading
Personal Weather Stations






























Interactive Weather Map New forecast layout! Learn more

10-Day Weather Forecast

Advertisements
Track Severe Weather on mobile